createdAt,value
2023-03-26T00:01:46.810Z,10.24
2023-03-26T00:04:22.022Z,10.24
2023-03-26T00:06:51.745Z,10.23
2023-03-26T00:09:20.984Z,10.23
2023-03-26T00:11:52.852Z,10.22
2023-03-26T00:14:22.964Z,10.20
2023-03-26T00:16:51.313Z,10.22
2023-03-26T00:19:23.860Z,10.29
2023-03-26T00:21:53.343Z,10.35
2023-03-26T00:24:21.747Z,10.40
2023-03-26T00:26:53.641Z,10.44
2023-03-26T00:29:24.736Z,10.47
2023-03-26T00:31:53.423Z,10.44
2023-03-26T00:34:25.039Z,10.41
2023-03-26T00:36:54.895Z,10.41
2023-03-26T00:39:24.565Z,10.46
2023-03-26T00:41:54.692Z,10.52
2023-03-26T00:44:23.486Z,10.56
2023-03-26T00:48:59.437Z,10.56
2023-03-26T00:51:28.227Z,10.53
2023-03-26T00:53:55.332Z,10.51
2023-03-26T00:56:22.248Z,10.49
2023-03-26T00:58:50.540Z,10.43
2023-03-26T01:01:21.255Z,10.40
2023-03-26T01:04:07.530Z,10.36
2023-03-26T01:06:37.384Z,10.32
2023-03-26T01:09:11.994Z,10.28
2023-03-26T01:11:40.150Z,10.19
2023-03-26T01:14:26.242Z,10.11
2023-03-26T01:16:54.630Z,10.03
2023-03-26T01:19:39.504Z,10.01
2023-03-26T01:22:10.521Z,9.98
2023-03-26T01:24:39.141Z,9.95
2023-03-26T01:27:18.643Z,9.94
2023-03-26T01:29:55.307Z,9.94
2023-03-26T01:32:44.354Z,9.92
2023-03-26T01:35:30.311Z,9.93
2023-03-26T01:38:10.102Z,9.94
2023-03-26T01:40:57.412Z,9.92
2023-03-26T01:43:27.139Z,9.89
2023-03-26T01:45:54.437Z,9.87
2023-03-26T01:48:33.489Z,9.83
2023-03-26T01:51:00.776Z,9.81
2023-03-26T01:53:29.544Z,9.79
2023-03-26T01:56:16.573Z,9.76
2023-03-26T01:59:12.062Z,9.76
2023-03-26T02:08:12.815Z,9.72
2023-03-26T02:10:46.021Z,9.66
2023-03-26T02:13:22.490Z,9.62
2023-03-26T02:16:00.453Z,9.60
2023-03-26T02:18:39.101Z,9.59
2023-03-26T02:21:14.082Z,9.55
2023-03-26T02:23:47.145Z,9.50
2023-03-26T02:26:17.081Z,9.47
2023-03-26T02:29:06.114Z,9.45
2023-03-26T02:31:38.892Z,9.41
2023-03-26T02:34:08.727Z,9.41
2023-03-26T02:36:39.370Z,9.38
2023-03-26T02:39:07.798Z,9.39
2023-03-26T02:41:43.372Z,9.41
2023-03-26T02:44:13.340Z,9.44
2023-03-26T02:47:00.328Z,9.49
2023-03-26T02:49:43.623Z,9.54
2023-03-26T02:52:17.368Z,9.55
2023-03-26T02:54:48.566Z,9.57
2023-03-26T03:01:44.071Z,9.58
2023-03-26T03:04:13.764Z,9.59
2023-03-26T03:06:45.178Z,9.59
2023-03-26T03:09:14.302Z,9.60
2023-03-26T03:11:45.890Z,9.63
2023-03-26T03:14:14.565Z,9.65
2023-03-26T03:16:44.031Z,9.67
2023-03-26T03:19:20.744Z,9.69
2023-03-26T03:21:55.137Z,9.65
2023-03-26T03:24:24.727Z,9.65
2023-03-26T03:26:58.358Z,9.62
2023-03-26T03:29:39.609Z,9.64
2023-03-26T03:32:47.802Z,9.68
2023-03-26T03:35:21.532Z,9.71
2023-03-26T03:37:53.622Z,9.76
2023-03-26T03:40:22.235Z,9.79
2023-03-26T03:42:51.913Z,9.81
2023-03-26T03:45:29.294Z,9.82
2023-03-26T03:48:09.665Z,9.82
2023-03-26T03:50:47.161Z,9.82
2023-03-26T03:53:26.491Z,9.86
2023-03-26T03:56:19.282Z,9.86
2023-03-26T03:59:16.703Z,9.82
2023-03-26T04:01:46.880Z,9.79
2023-03-26T04:04:24.780Z,9.75
2023-03-26T04:06:59.845Z,9.73
2023-03-26T04:09:33.503Z,9.71
2023-03-26T04:12:09.313Z,9.71
2023-03-26T04:14:52.417Z,9.75
2023-03-26T04:17:23.952Z,9.78
2023-03-26T04:20:05.983Z,9.80
2023-03-26T04:22:36.708Z,9.81
2023-03-26T04:25:10.181Z,9.82
2023-03-26T04:28:17.093Z,9.87
2023-03-26T04:30:57.318Z,9.91
2023-03-26T04:33:34.989Z,9.93
2023-03-26T04:36:03.969Z,9.93
2023-03-26T04:38:41.284Z,9.93
2023-03-26T04:41:13.307Z,9.90
2023-03-26T04:44:05.761Z,9.85
2023-03-26T04:46:35.316Z,9.82
2023-03-26T04:49:15.809Z,9.87
2023-03-26T04:51:47.402Z,9.92
2023-03-26T04:54:36.014Z,9.94
2023-03-26T04:57:29.185Z,9.96
2023-03-26T05:00:15.197Z,10.01
2023-03-26T05:02:54.474Z,10.02
2023-03-26T05:05:25.429Z,9.99
2023-03-26T05:07:56.167Z,10.05
2023-03-26T05:10:27.233Z,10.12
2023-03-26T05:13:06.814Z,10.19
2023-03-26T05:15:40.624Z,10.27
2023-03-26T05:18:35.782Z,10.38
2023-03-26T05:21:04.909Z,10.47
2023-03-26T05:23:41.260Z,10.55
2023-03-26T05:26:20.426Z,10.58
2023-03-26T05:28:53.946Z,10.61
2023-03-26T05:31:31.061Z,10.69
2023-03-26T05:34:03.535Z,10.81
2023-03-26T05:36:34.936Z,10.92
2023-03-26T05:39:26.566Z,11.01
2023-03-26T05:42:30.764Z,11.10
2023-03-26T05:45:25.928Z,11.17
2023-03-26T05:47:56.724Z,11.22
2023-03-26T05:50:27.305Z,11.26
2023-03-26T05:53:05.197Z,11.28
2023-03-26T05:56:04.519Z,11.30
2023-03-26T05:58:52.156Z,11.32
2023-03-26T06:01:43.277Z,11.29
2023-03-26T06:04:18.105Z,11.21
2023-03-26T06:07:17.307Z,11.15
2023-03-26T06:09:52.693Z,11.13
2023-03-26T06:12:22.133Z,11.21
2023-03-26T06:14:56.911Z,11.22
2023-03-26T06:17:36.262Z,11.26
2023-03-26T06:20:16.915Z,11.28
2023-03-26T06:22:49.353Z,11.25
2023-03-26T06:25:25.697Z,11.22
2023-03-26T06:28:28.146Z,11.21
2023-03-26T06:31:07.137Z,11.19
2023-03-26T06:33:39.066Z,11.23
2023-03-26T06:36:07.714Z,11.26
2023-03-26T06:38:36.881Z,11.31
2023-03-26T06:41:08.586Z,11.38
2023-03-26T06:43:56.974Z,11.44
2023-03-26T06:46:48.906Z,11.49
2023-03-26T06:49:47.544Z,11.54
2023-03-26T06:52:40.354Z,11.56
2023-03-26T06:55:35.122Z,11.53
2023-03-26T06:58:03.768Z,11.51
2023-03-26T07:00:54.519Z,11.53
2023-03-26T07:03:42.184Z,11.57
2023-03-26T07:06:33.070Z,11.60
2023-03-26T07:09:20.330Z,11.65
2023-03-26T07:12:15.998Z,11.63
2023-03-26T07:15:03.715Z,11.57
2023-03-26T07:17:53.667Z,11.52
2023-03-26T07:20:34.890Z,11.48
2023-03-26T07:23:04.911Z,11.49
2023-03-26T07:25:59.597Z,11.57
2023-03-26T07:32:42.222Z,11.78
2023-03-26T07:36:20.083Z,11.92
2023-03-26T07:39:38.411Z,12.03
2023-03-26T07:42:53.757Z,12.09
2023-03-26T07:45:55.502Z,12.22
2023-03-26T07:48:58.894Z,12.34
2023-03-26T07:51:37.016Z,12.42
2023-03-26T07:54:23.762Z,12.55
2023-03-26T07:57:31.681Z,12.66
2023-03-26T08:00:37.896Z,12.79
2023-03-26T08:03:17.624Z,12.92
2023-03-26T08:06:31.626Z,13.07
2023-03-26T08:09:31.120Z,13.26
2023-03-26T08:12:26.413Z,13.39
2023-03-26T08:15:09.164Z,13.51
2023-03-26T08:17:54.734Z,13.49
2023-03-26T08:20:48.342Z,13.54
2023-03-26T08:23:23.755Z,13.68
2023-03-26T08:29:04.033Z,13.58
2023-03-26T08:31:40.406Z,13.69
2023-03-26T08:34:13.083Z,13.73
2023-03-26T08:36:43.068Z,13.81
2023-03-26T08:39:14.485Z,13.87
2023-03-26T08:42:15.632Z,13.89
2023-03-26T08:45:00.571Z,13.96
2023-03-26T08:47:52.263Z,13.99
2023-03-26T08:50:34.502Z,14.07
2023-03-26T08:53:37.943Z,14.14
2023-03-26T08:56:33.227Z,14.24
2023-03-26T08:59:28.310Z,14.33
2023-03-26T09:02:24.972Z,14.44
2023-03-26T09:05:24.629Z,14.59
2023-03-26T09:08:16.091Z,14.73
2023-03-26T09:10:46.827Z,14.83
2023-03-26T09:13:28.844Z,14.87
2023-03-26T09:16:08.245Z,14.75
2023-03-26T09:19:01.566Z,14.46
2023-03-26T09:22:08.345Z,14.18
2023-03-26T09:25:27.645Z,14.02
2023-03-26T09:28:19.427Z,14.01
2023-03-26T09:30:47.729Z,14.03
2023-03-26T09:33:31.352Z,14.04
2023-03-26T09:36:38.586Z,14.01
2023-03-26T09:39:10.289Z,14.00
2023-03-26T09:42:07.395Z,14.02
2023-03-26T09:44:56.671Z,14.06
2023-03-26T09:47:47.205Z,14.05
2023-03-26T09:50:43.494Z,14.06
2023-03-26T09:53:38.871Z,14.09
2023-03-26T09:56:46.724Z,14.08
2023-03-26T09:59:15.296Z,14.17
2023-03-26T10:01:53.709Z,14.30
2023-03-26T10:04:38.516Z,14.50
2023-03-26T10:07:30.465Z,14.65
2023-03-26T10:10:54.125Z,14.90
2023-03-26T10:13:25.907Z,15.16
2023-03-26T10:16:15.853Z,15.24
2023-03-26T10:19:06.165Z,15.28
2023-03-26T10:22:17.109Z,15.23
2023-03-26T10:24:58.719Z,15.06
2023-03-26T10:27:40.107Z,14.88
2023-03-26T10:30:28.967Z,14.74
2023-03-26T10:33:20.646Z,14.68
2023-03-26T10:36:21.474Z,14.65
2023-03-26T10:38:48.768Z,14.65
2023-03-26T10:42:11.224Z,14.70
2023-03-26T10:44:43.577Z,14.81
2023-03-26T10:47:37.191Z,14.86
2023-03-26T10:50:11.383Z,14.94
2023-03-26T10:57:53.313Z,15.22
2023-03-26T11:00:25.187Z,15.39
2023-03-26T11:03:16.528Z,15.49
2023-03-26T11:10:59.862Z,15.53
2023-03-26T11:21:20.783Z,15.50
2023-03-26T11:24:08.232Z,15.45
2023-03-26T11:26:39.831Z,15.44
2023-03-26T11:29:32.813Z,15.40
2023-03-26T11:32:11.181Z,15.41
2023-03-26T11:35:41.116Z,15.41
2023-03-26T11:38:36.992Z,15.38
2023-03-26T11:41:27.223Z,15.34
2023-03-26T11:44:06.994Z,15.31
2023-03-26T11:46:43.442Z,15.27
2023-03-26T11:49:12.682Z,15.22
2023-03-26T11:51:40.953Z,15.14
2023-03-26T11:54:11.570Z,15.12
2023-03-26T11:57:04.559Z,15.19
2023-03-26T11:59:56.570Z,15.27
2023-03-26T12:02:33.528Z,15.30
2023-03-26T12:05:30.825Z,15.39
2023-03-26T12:07:59.298Z,15.47
2023-03-26T12:10:40.107Z,15.57
2023-03-26T12:13:42.810Z,15.71
2023-03-26T12:16:22.399Z,15.73
2023-03-26T12:26:55.767Z,15.62
2023-03-26T12:29:46.603Z,15.65
2023-03-26T12:32:48.071Z,15.68
2023-03-26T12:35:27.197Z,15.77
2023-03-26T12:46:44.307Z,15.93
2023-03-26T12:48:44.855Z,16.01
2023-03-26T12:51:49.301Z,16.02
2023-03-26T12:55:12.809Z,16.06
2023-03-26T12:59:00.276Z,16.18
2023-03-26T13:02:16.743Z,16.21
2023-03-26T13:04:55.007Z,16.14
2023-03-26T13:07:39.434Z,16.00
2023-03-26T13:10:28.954Z,15.99
2023-03-26T13:13:21.883Z,15.88
2023-03-26T13:15:55.774Z,15.80
2023-03-26T13:18:34.549Z,15.70
2023-03-26T13:28:31.928Z,15.39
2023-03-26T13:31:07.127Z,15.32
2023-03-26T13:33:38.201Z,15.30
2023-03-26T13:36:22.362Z,15.35
2023-03-26T13:38:59.200Z,15.41
2023-03-26T13:41:47.013Z,15.45
2023-03-26T13:45:04.994Z,15.46
2023-03-26T13:47:39.632Z,15.38
2023-03-26T13:50:26.692Z,15.32
2023-03-26T13:53:18.142Z,15.34
2023-03-26T13:55:52.428Z,15.39
2023-03-26T13:58:37.129Z,15.45
2023-03-26T14:01:05.364Z,15.45
2023-03-26T14:03:52.996Z,15.35
2023-03-26T14:06:42.852Z,15.17
2023-03-26T14:09:31.227Z,14.99
2023-03-26T14:12:21.233Z,14.88
2023-03-26T14:14:55.295Z,14.85
2023-03-26T14:17:51.575Z,14.85
2023-03-26T14:20:56.672Z,14.82
2023-03-26T14:23:50.049Z,14.83
2023-03-26T14:26:37.094Z,14.89
2023-03-26T14:29:12.287Z,14.93
2023-03-26T14:41:03.957Z,15.12
2023-03-26T14:44:05.025Z,15.17
2023-03-26T14:47:14.577Z,15.20
2023-03-26T14:50:13.544Z,15.19
2023-03-26T14:53:50.531Z,15.17
2023-03-26T14:56:29.625Z,15.12
2023-03-26T14:59:31.353Z,15.14
2023-03-26T15:02:18.714Z,15.05
2023-03-26T15:05:27.684Z,14.85
2023-03-26T15:08:34.593Z,14.71
2023-03-26T15:11:28.294Z,14.62
2023-03-26T15:14:20.248Z,14.55
2023-03-26T15:17:43.417Z,14.49
2023-03-26T15:26:01.576Z,14.30
2023-03-26T15:48:19.952Z,13.87
2023-03-26T15:52:08.314Z,13.88
2023-03-26T15:56:15.016Z,13.88
2023-03-26T16:07:30.335Z,13.80
2023-03-26T16:14:40.643Z,13.72
2023-03-26T16:17:58.605Z,13.67
2023-03-26T16:20:36.890Z,13.61
2023-03-26T16:28:17.548Z,13.48
2023-03-26T16:36:01.537Z,13.47
2023-03-26T16:39:37.162Z,13.47
2023-03-26T16:42:35.830Z,13.45
2023-03-26T16:45:49.592Z,13.47
2023-03-26T16:49:40.959Z,13.43
2023-03-26T16:56:56.746Z,12.86
2023-03-26T17:00:36.967Z,12.65
2023-03-26T17:04:27.509Z,12.54
2023-03-26T17:07:31.516Z,12.44
2023-03-26T17:10:32.388Z,12.38
2023-03-26T17:18:19.346Z,12.40
2023-03-26T17:21:12.610Z,12.42
2023-03-26T17:24:05.744Z,12.45
2023-03-26T17:27:11.764Z,12.50
2023-03-26T17:31:00.024Z,12.55
2023-03-26T17:34:27.282Z,12.53
2023-03-26T17:37:07.545Z,12.56
2023-03-26T17:40:01.865Z,12.56
2023-03-26T17:43:05.448Z,12.57
2023-03-26T17:46:13.126Z,12.57
2023-03-26T17:49:16.596Z,12.56
2023-03-26T17:52:24.594Z,12.53
2023-03-26T17:55:28.311Z,12.50
2023-03-26T17:59:11.602Z,12.52
2023-03-26T18:02:51.290Z,12.63
2023-03-26T18:10:36.833Z,12.76
2023-03-26T18:13:31.467Z,12.74
2023-03-26T18:16:44.573Z,12.72
2023-03-26T18:19:24.843Z,12.68
2023-03-26T18:22:04.793Z,12.63
2023-03-26T18:25:05.880Z,12.55
2023-03-26T18:27:53.452Z,12.37
2023-03-26T18:30:54.265Z,12.24
2023-03-26T18:33:32.840Z,12.19
2023-03-26T18:36:05.317Z,12.18
2023-03-26T18:38:38.107Z,12.21
2023-03-26T18:41:54.413Z,12.19
2023-03-26T18:44:30.586Z,12.12
2023-03-26T18:47:12.602Z,12.10
2023-03-26T18:49:50.933Z,12.09
2023-03-26T18:52:25.899Z,12.11
2023-03-26T18:54:58.934Z,12.09
2023-03-26T18:57:49.815Z,11.99
2023-03-26T19:00:31.354Z,11.90
2023-03-26T19:03:16.475Z,11.82
2023-03-26T19:06:02.867Z,11.74
2023-03-26T19:08:44.919Z,11.66
2023-03-26T19:12:06.268Z,11.66
2023-03-26T19:14:56.345Z,11.64
2023-03-26T19:17:51.996Z,11.61
2023-03-26T19:20:28.900Z,11.59
2023-03-26T19:23:02.017Z,11.55
2023-03-26T19:25:47.218Z,11.49
2023-03-26T19:28:28.650Z,11.46
2023-03-26T19:31:30.752Z,11.44
2023-03-26T19:34:29.362Z,11.41
2023-03-26T19:37:21.863Z,11.37
2023-03-26T19:40:29.378Z,11.34
2023-03-26T19:43:06.510Z,11.35
2023-03-26T19:45:59.605Z,11.35
2023-03-26T19:48:45.331Z,11.31
2023-03-26T19:51:25.943Z,11.28
2023-03-26T19:54:04.214Z,11.24
2023-03-26T19:56:36.235Z,11.20
2023-03-26T19:59:14.263Z,11.18
2023-03-26T20:01:56.097Z,11.21
2023-03-26T20:04:30.152Z,11.23
2023-03-26T20:07:03.306Z,11.22
2023-03-26T20:09:40.517Z,11.22
2023-03-26T20:12:15.251Z,11.22
2023-03-26T20:14:50.488Z,11.22
2023-03-26T20:17:23.311Z,11.22
2023-03-26T20:19:53.782Z,11.20
2023-03-26T20:22:26.330Z,11.14
2023-03-26T20:24:55.403Z,11.09
2023-03-26T20:27:32.733Z,11.05
2023-03-26T20:30:06.990Z,11.00
2023-03-26T20:35:43.063Z,10.92
2023-03-26T20:38:26.531Z,10.89
2023-03-26T20:41:20.839Z,10.93
2023-03-26T20:46:31.207Z,10.78
2023-03-26T20:49:08.586Z,10.89
2023-03-26T20:51:43.114Z,10.86
2023-03-26T20:54:31.553Z,10.82
2023-03-26T20:57:05.180Z,10.80
2023-03-26T20:59:45.449Z,10.75
2023-03-26T21:02:24.785Z,10.71
2023-03-26T21:05:10.004Z,10.71
2023-03-26T21:07:45.384Z,10.70
2023-03-26T21:10:23.187Z,10.71
2023-03-26T21:13:02.018Z,10.69
2023-03-26T21:15:39.750Z,10.68
2023-03-26T21:18:15.056Z,10.68
2023-03-26T21:20:47.133Z,10.66
2023-03-26T21:23:40.602Z,10.65
2023-03-26T21:26:19.148Z,10.61
2023-03-26T21:28:54.240Z,10.58
2023-03-26T21:31:39.278Z,10.56
2023-03-26T21:34:08.741Z,10.52
2023-03-26T21:36:41.272Z,10.48
2023-03-26T21:39:10.568Z,10.50
2023-03-26T21:41:46.344Z,10.51
2023-03-26T21:44:20.624Z,10.52
2023-03-26T21:46:50.833Z,10.52
2023-03-26T21:49:22.604Z,10.50
2023-03-26T21:51:51.548Z,10.50
2023-03-26T21:54:30.672Z,10.50
2023-03-26T21:57:06.317Z,10.50
2023-03-26T21:59:55.496Z,10.46
2023-03-26T22:02:28.635Z,10.39
2023-03-26T22:05:26.572Z,10.32
2023-03-26T22:08:04.121Z,10.25
2023-03-26T22:10:37.633Z,10.18
2023-03-26T22:13:07.333Z,10.19
2023-03-26T22:15:37.630Z,10.20
2023-03-26T22:18:07.669Z,10.19
2023-03-26T22:20:42.897Z,10.21
2023-03-26T22:23:12.487Z,10.23
2023-03-26T22:25:41.102Z,10.24
2023-03-26T22:28:13.194Z,10.25
2023-03-26T22:30:43.094Z,10.24
2023-03-26T22:33:17.364Z,10.19
2023-03-26T22:35:47.538Z,10.15
2023-03-26T22:38:18.992Z,10.10
2023-03-26T22:40:58.239Z,10.08
2023-03-26T22:43:26.558Z,10.04
2023-03-26T22:45:59.287Z,10.00
2023-03-26T22:48:31.612Z,10.00
2023-03-26T22:51:05.333Z,10.00
2023-03-26T22:53:38.494Z,9.95
2023-03-26T22:56:10.332Z,9.93
2023-03-26T22:58:41.682Z,9.91
2023-03-26T23:01:17.452Z,9.91
2023-03-26T23:03:47.860Z,9.92
2023-03-26T23:06:16.883Z,9.93
2023-03-26T23:08:47.487Z,9.90
2023-03-26T23:11:20.248Z,9.84
2023-03-26T23:13:51.999Z,9.81
2023-03-26T23:16:23.115Z,9.77
2023-03-26T23:18:50.491Z,9.74
2023-03-26T23:21:24.170Z,9.71
2023-03-26T23:23:52.748Z,9.73
2023-03-26T23:26:24.022Z,9.72
2023-03-26T23:28:55.002Z,9.70
2023-03-26T23:31:24.838Z,9.65
2023-03-26T23:33:53.670Z,9.61
2023-03-26T23:36:24.434Z,9.58
2023-03-26T23:38:54.647Z,9.55
2023-03-26T23:41:30.718Z,9.54
2023-03-26T23:44:04.694Z,9.53
2023-03-26T23:46:34.315Z,9.49
2023-03-26T23:49:04.886Z,9.47
2023-03-26T23:51:35.956Z,9.45
2023-03-26T23:54:05.760Z,9.41
